sensor_id;sensor_type;location;lat;lon;timestamp;pressure;altitude;pressure_sealevel;temperature;humidity
69245;BME280;56357;52.304;4.870;2023-03-22T00:01:20;101068.16;;;18.22;55.85
69245;BME280;56357;52.304;4.870;2023-03-22T00:03:47;101067.31;;;18.21;55.84
69245;BME280;56357;52.304;4.870;2023-03-22T00:06:15;101059.19;;;18.25;56.01
69245;BME280;56357;52.304;4.870;2023-03-22T00:08:42;101054.69;;;18.24;55.63
69245;BME280;56357;52.304;4.870;2023-03-22T00:11:10;101058.31;;;18.19;55.77
69245;BME280;56357;52.304;4.870;2023-03-22T00:13:37;101052.19;;;18.22;55.33
69245;BME280;56357;52.304;4.870;2023-03-22T00:16:04;101058.06;;;18.21;55.67
69245;BME280;56357;52.304;4.870;2023-03-22T00:18:31;101055.53;;;18.19;55.76
69245;BME280;56357;52.304;4.870;2023-03-22T00:20:58;101060.59;;;18.22;55.64
69245;BME280;56357;52.304;4.870;2023-03-22T00:23:25;101052.19;;;18.22;55.50
69245;BME280;56357;52.304;4.870;2023-03-22T00:25:51;101048.81;;;18.20;55.44
69245;BME280;56357;52.304;4.870;2023-03-22T00:28:18;101052.44;;;18.16;55.65
69245;BME280;56357;52.304;4.870;2023-03-22T00:30:56;101039.28;;;18.16;55.49
69245;BME280;56357;52.304;4.870;2023-03-22T00:33:23;101037.56;;;18.15;55.89
69245;BME280;56357;52.304;4.870;2023-03-22T00:35:51;101031.97;;;18.15;55.55
69245;BME280;56357;52.304;4.870;2023-03-22T00:38:19;101023.31;;;18.17;55.64
69245;BME280;56357;52.304;4.870;2023-03-22T00:40:46;101022.16;;;18.18;55.27
69245;BME280;56357;52.304;4.870;2023-03-22T00:43:12;101019.09;;;18.14;55.41
69245;BME280;56357;52.304;4.870;2023-03-22T00:45:40;101016.00;;;18.11;55.69
69245;BME280;56357;52.304;4.870;2023-03-22T00:48:10;101022.72;;;18.15;55.43
69245;BME280;56357;52.304;4.870;2023-03-22T00:50:37;101012.34;;;18.15;55.73
69245;BME280;56357;52.304;4.870;2023-03-22T00:53:04;101014.56;;;18.13;55.62
69245;BME280;56357;52.304;4.870;2023-03-22T00:55:31;101024.13;;;18.12;55.37
69245;BME280;56357;52.304;4.870;2023-03-22T00:57:57;101011.25;;;18.11;55.66
69245;BME280;56357;52.304;4.870;2023-03-22T01:00:24;101010.09;;;18.12;55.15
69245;BME280;56357;52.304;4.870;2023-03-22T01:02:51;101013.19;;;18.11;55.25
69245;BME280;56357;52.304;4.870;2023-03-22T01:05:24;101005.06;;;18.09;55.47
69245;BME280;56357;52.304;4.870;2023-03-22T01:07:50;101002.56;;;18.13;55.35
69245;BME280;56357;52.304;4.870;2023-03-22T01:10:19;100994.44;;;18.11;55.21
69245;BME280;56357;52.304;4.870;2023-03-22T01:12:45;100993.56;;;18.11;55.36
69245;BME280;56357;52.304;4.870;2023-03-22T01:15:12;100985.69;;;18.08;55.40
69245;BME280;56357;52.304;4.870;2023-03-22T01:17:38;100979.84;;;18.09;55.45
69245;BME280;56357;52.304;4.870;2023-03-22T01:20:05;100978.44;;;18.07;55.37
69245;BME280;56357;52.304;4.870;2023-03-22T01:22:33;100970.88;;;18.07;55.08
69245;BME280;56357;52.304;4.870;2023-03-22T01:24:59;100982.66;;;18.09;55.16
69245;BME280;56357;52.304;4.870;2023-03-22T01:27:26;100970.03;;;18.07;55.09
69245;BME280;56357;52.304;4.870;2023-03-22T01:29:52;100959.91;;;18.01;55.13
69245;BME280;56357;52.304;4.870;2023-03-22T01:32:19;100964.41;;;18.02;54.92
69245;BME280;56357;52.304;4.870;2023-03-22T01:34:45;100969.47;;;18.05;55.27
69245;BME280;56357;52.304;4.870;2023-03-22T01:37:11;100952.94;;;18.03;54.97
69245;BME280;56357;52.304;4.870;2023-03-22T01:39:38;100950.13;;;18.03;55.14
69245;BME280;56357;52.304;4.870;2023-03-22T01:42:04;100950.41;;;18.02;55.15
69245;BME280;56357;52.304;4.870;2023-03-22T01:44:31;100944.81;;;18.02;55.16
69245;BME280;56357;52.304;4.870;2023-03-22T01:46:57;100936.09;;;18.03;55.55
69245;BME280;56357;52.304;4.870;2023-03-22T01:49:30;100925.19;;;18.02;55.07
69245;BME280;56357;52.304;4.870;2023-03-22T01:52:17;100923.19;;;18.02;55.12
69245;BME280;56357;52.304;4.870;2023-03-22T01:54:47;100926.28;;;18.01;55.18
69245;BME280;56357;52.304;4.870;2023-03-22T01:57:14;100924.63;;;18.00;54.96
69245;BME280;56357;52.304;4.870;2023-03-22T01:59:41;100922.91;;;17.99;55.30
69245;BME280;56357;52.304;4.870;2023-03-22T02:02:09;100922.06;;;17.98;55.02
69245;BME280;56357;52.304;4.870;2023-03-22T02:04:43;100907.50;;;17.96;55.22
69245;BME280;56357;52.304;4.870;2023-03-22T02:07:15;100899.66;;;17.93;55.17
69245;BME280;56357;52.304;4.870;2023-03-22T02:09:51;100905.25;;;17.98;55.21
69245;BME280;56357;52.304;4.870;2023-03-22T02:12:28;100894.34;;;17.97;54.94
69245;BME280;56357;52.304;4.870;2023-03-22T02:29:03;100867.69;;;17.94;54.98
69245;BME280;56357;52.304;4.870;2023-03-22T02:49:28;100842.50;;;17.84;54.89
69245;BME280;56357;52.304;4.870;2023-03-22T02:52:14;100844.19;;;17.85;55.05
69245;BME280;56357;52.304;4.870;2023-03-22T02:57:20;100849.25;;;17.88;54.82
69245;BME280;56357;52.304;4.870;2023-03-22T02:59:49;100842.78;;;17.88;54.69
69245;BME280;56357;52.304;4.870;2023-03-22T03:02:17;100847.00;;;17.90;54.84
69245;BME280;56357;52.304;4.870;2023-03-22T03:04:46;100830.16;;;17.85;54.94
69245;BME280;56357;52.304;4.870;2023-03-22T03:07:19;100839.97;;;17.88;55.13
69245;BME280;56357;52.304;4.870;2023-03-22T03:09:47;100832.44;;;17.88;55.14
69245;BME280;56357;52.304;4.870;2023-03-22T03:12:24;100827.09;;;17.92;55.07
69245;BME280;56357;52.304;4.870;2023-03-22T03:14:51;100829.63;;;17.93;55.00
69245;BME280;56357;52.304;4.870;2023-03-22T03:20:21;100827.38;;;17.90;54.81
69245;BME280;56357;52.304;4.870;2023-03-22T03:23:20;100819.78;;;17.91;55.01
69245;BME280;56357;52.304;4.870;2023-03-22T03:34:19;100808.31;;;17.87;55.16
69245;BME280;56357;52.304;4.870;2023-03-22T03:37:00;100808.88;;;17.94;54.95
69245;BME280;56357;52.304;4.870;2023-03-22T03:39:31;100811.66;;;17.94;54.97
69245;BME280;56357;52.304;4.870;2023-03-22T03:42:01;100809.44;;;17.96;55.10
69245;BME280;56357;52.304;4.870;2023-03-22T03:44:31;100801.03;;;17.96;54.86
69245;BME280;56357;52.304;4.870;2023-03-22T03:47:00;100807.47;;;17.92;55.09
69245;BME280;56357;52.304;4.870;2023-03-22T03:49:27;100804.69;;;17.92;55.29
69245;BME280;56357;52.304;4.870;2023-03-22T03:51:54;100808.31;;;17.97;54.91
69245;BME280;56357;52.304;4.870;2023-03-22T03:54:22;100807.75;;;17.95;55.09
69245;BME280;56357;52.304;4.870;2023-03-22T03:56:48;100805.50;;;17.97;55.17
69245;BME280;56357;52.304;4.870;2023-03-22T03:59:16;100809.16;;;17.98;54.96
69245;BME280;56357;52.304;4.870;2023-03-22T04:01:43;100808.59;;;17.96;55.42
69245;BME280;56357;52.304;4.870;2023-03-22T04:04:16;100807.78;;;17.90;55.46
69245;BME280;56357;52.304;4.870;2023-03-22T04:06:42;100810.56;;;17.95;55.28
69245;BME280;56357;52.304;4.870;2023-03-22T04:09:08;100797.09;;;17.92;55.47
69245;BME280;56357;52.304;4.870;2023-03-22T04:11:36;100796.56;;;17.95;55.54
69245;BME280;56357;52.304;4.870;2023-03-22T04:14:02;100798.78;;;18.03;55.15
69245;BME280;56357;52.304;4.870;2023-03-22T04:16:28;100795.41;;;17.96;55.22
69245;BME280;56357;52.304;4.870;2023-03-22T04:18:55;100791.78;;;17.96;55.50
69245;BME280;56357;52.304;4.870;2023-03-22T04:21:21;100796.81;;;18.04;55.22
69245;BME280;56357;52.304;4.870;2023-03-22T04:23:48;100794.84;;;17.94;55.26
69245;BME280;56357;52.304;4.870;2023-03-22T04:26:14;100791.22;;;17.74;56.13
69245;BME280;56357;52.304;4.870;2023-03-22T04:28:41;100784.53;;;17.75;56.45
69245;BME280;56357;52.304;4.870;2023-03-22T04:31:08;100778.06;;;17.89;55.34
69245;BME280;56357;52.304;4.870;2023-03-22T04:33:34;100780.88;;;17.84;55.77
69245;BME280;56357;52.304;4.870;2023-03-22T04:36:06;100778.63;;;17.86;55.73
69245;BME280;56357;52.304;4.870;2023-03-22T04:38:35;100777.22;;;17.94;55.55
69245;BME280;56357;52.304;4.870;2023-03-22T04:41:03;100769.66;;;17.99;55.63
69245;BME280;56357;52.304;4.870;2023-03-22T04:43:30;100773.31;;;17.90;55.87
69245;BME280;56357;52.304;4.870;2023-03-22T04:45:59;100763.78;;;17.96;55.74
69245;BME280;56357;52.304;4.870;2023-03-22T04:48:27;100769.06;;;17.92;55.66
69245;BME280;56357;52.304;4.870;2023-03-22T04:50:53;100771.06;;;17.72;56.41
69245;BME280;56357;52.304;4.870;2023-03-22T04:53:20;100757.34;;;17.80;56.10
69245;BME280;56357;52.304;4.870;2023-03-22T04:55:54;100772.44;;;17.89;55.93
69245;BME280;56357;52.304;4.870;2023-03-22T04:58:23;100757.06;;;17.92;55.85
69245;BME280;56357;52.304;4.870;2023-03-22T05:00:51;100759.59;;;17.78;56.00
69245;BME280;56357;52.304;4.870;2023-03-22T05:03:19;100759.03;;;17.86;55.78
69245;BME280;56357;52.304;4.870;2023-03-22T05:05:53;100752.25;;;17.92;56.00
69245;BME280;56357;52.304;4.870;2023-03-22T05:08:21;100748.38;;;17.88;56.27
69245;BME280;56357;52.304;4.870;2023-03-22T05:10:49;100748.06;;;17.95;55.75
69245;BME280;56357;52.304;4.870;2023-03-22T05:13:17;100748.09;;;18.00;56.01
69245;BME280;56357;52.304;4.870;2023-03-22T05:15:43;100738.53;;;18.01;55.80
69245;BME280;56357;52.304;4.870;2023-03-22T05:18:11;100741.63;;;17.89;56.11
69245;BME280;56357;52.304;4.870;2023-03-22T05:20:39;100739.69;;;18.00;56.01
69245;BME280;56357;52.304;4.870;2023-03-22T05:23:06;100734.63;;;18.02;55.86
69245;BME280;56357;52.304;4.870;2023-03-22T05:25:34;100733.53;;;17.88;56.19
69245;BME280;56357;52.304;4.870;2023-03-22T05:28:02;100737.97;;;17.99;56.09
69245;BME280;56357;52.304;4.870;2023-03-22T05:30:29;100737.97;;;17.89;56.40
69245;BME280;56357;52.304;4.870;2023-03-22T05:32:57;100735.19;;;17.89;56.37
69245;BME280;56357;52.304;4.870;2023-03-22T05:35:27;100721.16;;;17.99;55.99
69245;BME280;56357;52.304;4.870;2023-03-22T05:37:54;100716.94;;;18.06;55.72
69245;BME280;56357;52.304;4.870;2023-03-22T05:40:21;100722.00;;;18.04;55.87
69245;BME280;56357;52.304;4.870;2023-03-22T05:42:47;100717.22;;;18.10;55.77
69245;BME280;56357;52.304;4.870;2023-03-22T05:45:14;100722.00;;;17.99;56.15
69245;BME280;56357;52.304;4.870;2023-03-22T05:47:40;100712.47;;;18.00;55.95
69245;BME280;56357;52.304;4.870;2023-03-22T05:50:11;100709.38;;;18.07;56.10
69245;BME280;56357;52.304;4.870;2023-03-22T05:52:38;100713.00;;;18.12;55.73
69245;BME280;56357;52.304;4.870;2023-03-22T05:55:07;100712.44;;;18.10;56.13
69245;BME280;56357;52.304;4.870;2023-03-22T05:57:34;100707.38;;;18.17;55.68
69245;BME280;56357;52.304;4.870;2023-03-22T06:00:00;100706.84;;;18.10;55.94
69245;BME280;56357;52.304;4.870;2023-03-22T06:02:30;100711.34;;;18.06;56.03
69245;BME280;56357;52.304;4.870;2023-03-22T06:04:56;100711.91;;;18.03;56.15
69245;BME280;56357;52.304;4.870;2023-03-22T06:07:23;100717.47;;;18.13;55.95
69245;BME280;56357;52.304;4.870;2023-03-22T06:09:49;100716.09;;;18.11;55.88
69245;BME280;56357;52.304;4.870;2023-03-22T06:12:15;100718.63;;;18.02;56.23
69245;BME280;56357;52.304;4.870;2023-03-22T06:14:42;100715.81;;;18.12;56.06
69245;BME280;56357;52.304;4.870;2023-03-22T06:17:09;100711.88;;;18.18;55.78
69245;BME280;56357;52.304;4.870;2023-03-22T06:19:36;100709.06;;;18.28;55.80
69245;BME280;56357;52.304;4.870;2023-03-22T06:22:02;100711.88;;;18.18;56.13
69245;BME280;56357;52.304;4.870;2023-03-22T06:24:29;100709.91;;;18.19;55.90
69245;BME280;56357;52.304;4.870;2023-03-22T06:26:55;100717.47;;;18.28;55.84
69245;BME280;56357;52.304;4.870;2023-03-22T06:29:21;100708.47;;;18.32;55.71
69245;BME280;56357;52.304;4.870;2023-03-22T06:31:48;100718.88;;;18.21;55.83
69245;BME280;56357;52.304;4.870;2023-03-22T06:34:14;100709.88;;;18.29;56.63
69245;BME280;56357;52.304;4.870;2023-03-22T06:36:41;100711.22;;;18.37;56.70
69245;BME280;56357;52.304;4.870;2023-03-22T06:39:08;100711.53;;;18.35;56.77
69245;BME280;56357;52.304;4.870;2023-03-22T06:41:34;100710.69;;;18.35;56.74
69245;BME280;56357;52.304;4.870;2023-03-22T06:44:01;100714.03;;;18.42;56.97
69245;BME280;56357;52.304;4.870;2023-03-22T06:46:27;100712.13;;;18.42;57.51
69245;BME280;56357;52.304;4.870;2023-03-22T06:48:54;100710.69;;;18.40;57.20
69245;BME280;56357;52.304;4.870;2023-03-22T06:51:20;100708.16;;;18.38;57.61
69245;BME280;56357;52.304;4.870;2023-03-22T06:53:47;100709.28;;;18.37;57.56
69245;BME280;56357;52.304;4.870;2023-03-22T06:56:13;100704.78;;;18.41;57.49
69245;BME280;56357;52.304;4.870;2023-03-22T06:58:40;100708.72;;;18.45;57.58
69245;BME280;56357;52.304;4.870;2023-03-22T07:01:06;100709.00;;;18.49;59.02
69245;BME280;56357;52.304;4.870;2023-03-22T07:03:33;100708.69;;;18.55;58.63
69245;BME280;56357;52.304;4.870;2023-03-22T07:06:04;100703.38;;;18.54;58.47
69245;BME280;56357;52.304;4.870;2023-03-22T07:08:32;100708.34;;;18.67;57.91
69245;BME280;56357;52.304;4.870;2023-03-22T07:10:58;100712.81;;;18.68;57.25
69245;BME280;56357;52.304;4.870;2023-03-22T07:13:25;100711.16;;;18.67;57.59
69245;BME280;56357;52.304;4.870;2023-03-22T07:15:56;100701.13;;;18.51;58.16
69245;BME280;56357;52.304;4.870;2023-03-22T07:18:23;100692.38;;;18.62;57.78
69245;BME280;56357;52.304;4.870;2023-03-22T07:20:50;100701.59;;;18.68;57.68
69245;BME280;56357;52.304;4.870;2023-03-22T07:23:17;100705.59;;;18.57;58.26
69245;BME280;56357;52.304;4.870;2023-03-22T07:25:44;100699.34;;;18.70;57.84
69245;BME280;56357;52.304;4.870;2023-03-22T07:28:11;100707.75;;;18.70;57.85
69245;BME280;56357;52.304;4.870;2023-03-22T07:30:38;100706.66;;;18.66;58.31
69245;BME280;56357;52.304;4.870;2023-03-22T07:33:06;100715.66;;;18.63;58.19
69245;BME280;56357;52.304;4.870;2023-03-22T07:35:33;100715.94;;;18.66;58.28
69245;BME280;56357;52.304;4.870;2023-03-22T07:38:01;100696.88;;;18.63;58.46
69245;BME280;56357;52.304;4.870;2023-03-22T07:40:28;100699.66;;;18.68;58.10
69245;BME280;56357;52.304;4.870;2023-03-22T07:42:54;100689.81;;;18.71;58.08
69245;BME280;56357;52.304;4.870;2023-03-22T07:45:22;100687.84;;;18.71;58.16
69245;BME280;56357;52.304;4.870;2023-03-22T07:47:49;100697.69;;;18.69;58.36
69245;BME280;56357;52.304;4.870;2023-03-22T07:50:15;100706.03;;;18.79;57.74
69245;BME280;56357;52.304;4.870;2023-03-22T07:52:43;100713.63;;;18.78;58.29
69245;BME280;56357;52.304;4.870;2023-03-22T07:55:11;100701.56;;;18.78;58.14
69245;BME280;56357;52.304;4.870;2023-03-22T07:57:38;100714.94;;;18.96;59.23
69245;BME280;56357;52.304;4.870;2023-03-22T08:00:06;100714.28;;;19.04;58.86
69245;BME280;56357;52.304;4.870;2023-03-22T08:02:34;100698.53;;;19.13;58.74
69245;BME280;56357;52.304;4.870;2023-03-22T08:05:01;100699.16;;;19.05;58.31
69245;BME280;56357;52.304;4.870;2023-03-22T08:07:28;100703.78;;;18.81;58.75
69245;BME280;56357;52.304;4.870;2023-03-22T08:09:55;100718.81;;;19.05;58.61
69245;BME280;56357;52.304;4.870;2023-03-22T08:12:22;100711.72;;;19.12;58.54
69245;BME280;56357;52.304;4.870;2023-03-22T08:14:48;100713.75;;;19.02;59.16
69245;BME280;56357;52.304;4.870;2023-03-22T08:17:17;100703.88;;;19.09;58.89
69245;BME280;56357;52.304;4.870;2023-03-22T08:19:44;100701.97;;;19.05;57.98
69245;BME280;56357;52.304;4.870;2023-03-22T08:22:11;100696.63;;;19.03;58.37
69245;BME280;56357;52.304;4.870;2023-03-22T08:24:39;100700.53;;;19.07;58.70
69245;BME280;56357;52.304;4.870;2023-03-22T08:27:05;100698.31;;;19.04;58.70
69245;BME280;56357;52.304;4.870;2023-03-22T08:29:32;100716.00;;;19.00;58.33
69245;BME280;56357;52.304;4.870;2023-03-22T08:31:59;100708.13;;;19.02;57.68
69245;BME280;56357;52.304;4.870;2023-03-22T08:34:29;100699.44;;;19.03;58.45
69245;BME280;56357;52.304;4.870;2023-03-22T08:36:57;100699.44;;;19.03;58.71
69245;BME280;56357;52.304;4.870;2023-03-22T08:39:24;100701.09;;;19.04;58.71
69245;BME280;56357;52.304;4.870;2023-03-22T08:41:50;100711.19;;;19.10;58.65
69245;BME280;56357;52.304;4.870;2023-03-22T08:44:17;100714.47;;;19.23;58.49
69245;BME280;56357;52.304;4.870;2023-03-22T08:46:43;100709.16;;;19.16;58.37
69245;BME280;56357;52.304;4.870;2023-03-22T08:49:09;100710.34;;;19.10;58.51
69245;BME280;56357;52.304;4.870;2023-03-22T08:51:36;100701.97;;;19.05;58.76
69245;BME280;56357;52.304;4.870;2023-03-22T08:54:02;100714.53;;;19.12;58.22
69245;BME280;56357;52.304;4.870;2023-03-22T08:56:29;100701.38;;;19.08;58.45
69245;BME280;56357;52.304;4.870;2023-03-22T08:58:56;100696.84;;;19.17;58.21
69245;BME280;56357;52.304;4.870;2023-03-22T09:01:23;100701.63;;;19.11;58.28
69245;BME280;56357;52.304;4.870;2023-03-22T09:03:50;100694.78;;;19.28;57.72
69245;BME280;56357;52.304;4.870;2023-03-22T09:06:17;100686.72;;;19.16;57.76
69245;BME280;56357;52.304;4.870;2023-03-22T09:08:43;100698.50;;;19.18;57.96
69245;BME280;56357;52.304;4.870;2023-03-22T09:11:10;100694.88;;;19.12;57.98
69245;BME280;56357;52.304;4.870;2023-03-22T09:13:38;100686.97;;;19.19;58.30
69245;BME280;56357;52.304;4.870;2023-03-22T09:16:05;100690.00;;;19.28;57.56
69245;BME280;56357;52.304;4.870;2023-03-22T09:18:33;100693.09;;;19.27;57.24
69245;BME280;56357;52.304;4.870;2023-03-22T09:21:00;100701.53;;;19.22;57.47
69245;BME280;56357;52.304;4.870;2023-03-22T09:23:26;100698.00;;;19.11;57.76
69245;BME280;56357;52.304;4.870;2023-03-22T09:25:54;100705.25;;;19.12;57.84
69245;BME280;56357;52.304;4.870;2023-03-22T09:28:21;100703.56;;;19.16;57.75
69245;BME280;56357;52.304;4.870;2023-03-22T09:30:48;100696.91;;;19.02;58.03
69245;BME280;56357;52.304;4.870;2023-03-22T09:33:15;100693.78;;;19.08;57.96
69245;BME280;56357;52.304;4.870;2023-03-22T09:35:42;100698.91;;;19.01;57.49
69245;BME280;56357;52.304;4.870;2023-03-22T09:38:09;100696.28;;;19.10;57.50
69245;BME280;56357;52.304;4.870;2023-03-22T09:40:42;100699.09;;;19.15;57.56
69245;BME280;56357;52.304;4.870;2023-03-22T09:43:14;100696.53;;;19.18;57.69
69245;BME280;56357;52.304;4.870;2023-03-22T09:45:44;100691.47;;;19.15;57.72
69245;BME280;56357;52.304;4.870;2023-03-22T09:48:27;100695.50;;;19.04;57.96
69245;BME280;56357;52.304;4.870;2023-03-22T09:50:56;100694.66;;;19.04;58.30
69245;BME280;56357;52.304;4.870;2023-03-22T09:53:24;100696.34;;;19.05;58.25
69245;BME280;56357;52.304;4.870;2023-03-22T09:58:44;100700.63;;;19.31;57.82
69245;BME280;56357;52.304;4.870;2023-03-22T10:01:36;100700.13;;;19.24;57.52
69245;BME280;56357;52.304;4.870;2023-03-22T10:06:49;100702.22;;;19.08;57.83
69245;BME280;56357;52.304;4.870;2023-03-22T10:12:32;100701.03;;;19.14;57.79
69245;BME280;56357;52.304;4.870;2023-03-22T10:15:09;100706.88;;;19.23;56.47
69245;BME280;56357;52.304;4.870;2023-03-22T10:17:38;100698.66;;;18.93;57.10
69245;BME280;56357;52.304;4.870;2023-03-22T10:22:45;100706.78;;;18.94;56.76
69245;BME280;56357;52.304;4.870;2023-03-22T10:25:16;100708.47;;;18.95;56.69
69245;BME280;56357;52.304;4.870;2023-03-22T10:27:46;100701.50;;;18.88;56.80
69245;BME280;56357;52.304;4.870;2023-03-22T10:30:22;100693.91;;;18.88;56.99
69245;BME280;56357;52.304;4.870;2023-03-22T10:33:01;100688.81;;;18.95;56.62
69245;BME280;56357;52.304;4.870;2023-03-22T10:35:29;100683.50;;;18.94;56.74
69245;BME280;56357;52.304;4.870;2023-03-22T10:37:57;100676.81;;;18.90;56.82
69245;BME280;56357;52.304;4.870;2023-03-22T10:40:29;100663.03;;;18.88;56.73
69245;BME280;56357;52.304;4.870;2023-03-22T10:43:05;100661.63;;;18.91;56.76
69245;BME280;56357;52.304;4.870;2023-03-22T10:45:34;100668.34;;;18.95;56.85
69245;BME280;56357;52.304;4.870;2023-03-22T10:48:06;100667.47;;;18.99;56.55
69245;BME280;56357;52.304;4.870;2023-03-22T10:50:38;100659.88;;;19.00;56.92
69245;BME280;56357;52.304;4.870;2023-03-22T10:53:26;100675.06;;;18.99;56.94
69245;BME280;56357;52.304;4.870;2023-03-22T10:55:54;100682.06;;;18.96;57.15
69245;BME280;56357;52.304;4.870;2023-03-22T10:58:28;100680.41;;;18.95;57.58
69245;BME280;56357;52.304;4.870;2023-03-22T11:00:57;100675.66;;;18.91;57.60
69245;BME280;56357;52.304;4.870;2023-03-22T11:06:12;100667.78;;;18.98;57.81
69245;BME280;56357;52.304;4.870;2023-03-22T11:09:32;100650.34;;;19.01;57.49
69245;BME280;56357;52.304;4.870;2023-03-22T11:11:35;100665.53;;;18.95;57.55
69245;BME280;56357;52.304;4.870;2023-03-22T11:16:41;100691.28;;;19.02;57.60
69245;BME280;56357;52.304;4.870;2023-03-22T11:19:14;100689.09;;;18.99;57.68
69245;BME280;56357;52.304;4.870;2023-03-22T11:21:44;100700.34;;;18.94;57.91
69245;BME280;56357;52.304;4.870;2023-03-22T11:24:12;100700.06;;;18.90;57.82
69245;BME280;56357;52.304;4.870;2023-03-22T11:26:39;100704.59;;;18.86;58.37
69245;BME280;56357;52.304;4.870;2023-03-22T11:29:12;100709.34;;;18.91;57.72
69245;BME280;56357;52.304;4.870;2023-03-22T11:31:57;100718.06;;;18.89;57.50
69245;BME280;56357;52.304;4.870;2023-03-22T11:34:28;100722.50;;;18.90;57.23
69245;BME280;56357;52.304;4.870;2023-03-22T11:36:55;100730.13;;;18.90;57.50
69245;BME280;56357;52.304;4.870;2023-03-22T11:39:27;100729.56;;;18.88;57.10
69245;BME280;56357;52.304;4.870;2023-03-22T11:41:59;100725.31;;;18.90;57.21
69245;BME280;56357;52.304;4.870;2023-03-22T11:44:31;100715.84;;;18.86;57.21
69245;BME280;56357;52.304;4.870;2023-03-22T11:47:01;100721.44;;;18.86;56.86
69245;BME280;56357;52.304;4.870;2023-03-22T11:49:45;100715.03;;;18.76;57.30
69245;BME280;56357;52.304;4.870;2023-03-22T11:52:19;100712.78;;;18.78;57.14
69245;BME280;56357;52.304;4.870;2023-03-22T11:54:47;100710.56;;;18.75;57.32
69245;BME280;56357;52.304;4.870;2023-03-22T11:57:24;100709.41;;;18.76;57.55
69245;BME280;56357;52.304;4.870;2023-03-22T11:59:58;100718.97;;;18.75;56.97
69245;BME280;56357;52.304;4.870;2023-03-22T12:02:34;100712.53;;;18.74;57.18
69245;BME280;56357;52.304;4.870;2023-03-22T12:05:10;100719.78;;;18.80;57.64
69245;BME280;56357;52.304;4.870;2023-03-22T12:07:37;100716.72;;;18.77;57.55
69245;BME280;56357;52.304;4.870;2023-03-22T12:15:57;100725.09;;;18.82;58.19
69245;BME280;56357;52.304;4.870;2023-03-22T12:21:22;100723.16;;;18.77;60.04
69245;BME280;56357;52.304;4.870;2023-03-22T12:23:48;100707.72;;;18.80;61.77
69245;BME280;56357;52.304;4.870;2023-03-22T12:26:17;100704.91;;;18.80;63.58
69245;BME280;56357;52.304;4.870;2023-03-22T12:28:53;100701.97;;;19.00;63.03
69245;BME280;56357;52.304;4.870;2023-03-22T12:31:36;100707.56;;;19.05;62.96
69245;BME280;56357;52.304;4.870;2023-03-22T12:34:08;100702.25;;;19.03;64.13
69245;BME280;56357;52.304;4.870;2023-03-22T12:36:47;100693.56;;;19.00;64.58
69245;BME280;56357;52.304;4.870;2023-03-22T12:39:25;100690.78;;;18.95;65.16
69245;BME280;56357;52.304;4.870;2023-03-22T12:41:56;100679.88;;;18.93;64.70
69245;BME280;56357;52.304;4.870;2023-03-22T12:46:56;100689.13;;;18.94;64.53
69245;BME280;56357;52.304;4.870;2023-03-22T12:50:18;100685.78;;;18.92;64.28
69245;BME280;56357;52.304;4.870;2023-03-22T12:52:55;100695.00;;;18.97;64.24
69245;BME280;56357;52.304;4.870;2023-03-22T12:55:27;100697.06;;;18.82;64.36
69245;BME280;56357;52.304;4.870;2023-03-22T12:57:55;100707.94;;;18.88;64.14
69245;BME280;56357;52.304;4.870;2023-03-22T13:00:31;100694.81;;;18.79;64.27
69245;BME280;56357;52.304;4.870;2023-03-22T13:05:45;100693.03;;;18.98;63.90
69245;BME280;56357;52.304;4.870;2023-03-22T13:08:11;100693.25;;;19.06;63.37
69245;BME280;56357;52.304;4.870;2023-03-22T13:10:47;100697.47;;;19.04;63.75
69245;BME280;56357;52.304;4.870;2023-03-22T13:13:42;100695.25;;;19.01;63.68
69245;BME280;56357;52.304;4.870;2023-03-22T13:21:21;100696.03;;;19.06;62.87
69245;BME280;56357;52.304;4.870;2023-03-22T13:26:38;100695.44;;;19.09;62.48
69245;BME280;56357;52.304;4.870;2023-03-22T13:29:24;100692.38;;;19.11;62.46
69245;BME280;56357;52.304;4.870;2023-03-22T13:34:19;100683.28;;;19.24;62.00
69245;BME280;56357;52.304;4.870;2023-03-22T13:36:51;100683.53;;;19.33;62.01
69245;BME280;56357;52.304;4.870;2023-03-22T13:39:19;100685.22;;;19.29;61.37
69245;BME280;56357;52.304;4.870;2023-03-22T13:41:48;100692.88;;;19.18;61.40
69245;BME280;56357;52.304;4.870;2023-03-22T13:44:29;100670.16;;;19.14;61.67
69245;BME280;56357;52.304;4.870;2023-03-22T13:46:58;100669.91;;;19.11;61.79
69245;BME280;56357;52.304;4.870;2023-03-22T13:51:59;100662.06;;;19.08;61.35
69245;BME280;56357;52.304;4.870;2023-03-22T13:54:36;100677.19;;;19.17;61.38
69245;BME280;56357;52.304;4.870;2023-03-22T13:57:03;100678.59;;;19.14;61.16
69245;BME280;56357;52.304;4.870;2023-03-22T14:02:27;100668.22;;;19.15;62.46
69245;BME280;56357;52.304;4.870;2023-03-22T14:05:02;100661.69;;;19.19;62.47
69245;BME280;56357;52.304;4.870;2023-03-22T14:12:55;100662.28;;;19.16;63.54
69245;BME280;56357;52.304;4.870;2023-03-22T14:15:26;100658.34;;;19.17;63.88
69245;BME280;56357;52.304;4.870;2023-03-22T14:20:31;100645.75;;;19.15;64.02
69245;BME280;56357;52.304;4.870;2023-03-22T14:23:02;100643.50;;;19.17;63.83
69245;BME280;56357;52.304;4.870;2023-03-22T14:25:32;100644.81;;;19.25;63.39
69245;BME280;56357;52.304;4.870;2023-03-22T14:27:59;100634.41;;;19.25;63.90
69245;BME280;56357;52.304;4.870;2023-03-22T14:32:57;100620.28;;;19.40;62.86
69245;BME280;56357;52.304;4.870;2023-03-22T14:35:36;100630.59;;;19.50;62.55
69245;BME280;56357;52.304;4.870;2023-03-22T14:38:07;100616.94;;;19.67;61.94
69245;BME280;56357;52.304;4.870;2023-03-22T14:40:36;100625.53;;;19.75;61.69
69245;BME280;56357;52.304;4.870;2023-03-22T14:43:13;100624.66;;;19.80;61.75
69245;BME280;56357;52.304;4.870;2023-03-22T14:45:39;100623.31;;;19.96;60.98